sensor_id;sensor_type;location;lat;lon;timestamp;P1;durP1;ratioP1;P2;durP2;ratioP2
19364;SDS011;9818;48.382;10.850;2023-12-14T00:00:07;1.27;;;0.90;;
19364;SDS011;9818;48.382;10.850;2023-12-14T00:02:36;1.77;;;0.90;;
19364;SDS011;9818;48.382;10.850;2023-12-14T00:05:06;1.67;;;0.70;;
19364;SDS011;9818;48.382;10.850;2023-12-14T00:07:35;0.93;;;0.70;;
19364;SDS011;9818;48.382;10.850;2023-12-14T00:10:04;1.33;;;0.70;;
19364;SDS011;9818;48.382;10.850;2023-12-14T00:12:34;1.50;;;0.90;;
19364;SDS011;9818;48.382;10.850;2023-12-14T00:15:03;2.20;;;0.80;;
19364;SDS011;9818;48.382;10.850;2023-12-14T00:17:35;2.47;;;1.10;;
19364;SDS011;9818;48.382;10.850;2023-12-14T00:20:05;2.70;;;0.80;;
19364;SDS011;9818;48.382;10.850;2023-12-14T00:22:34;2.70;;;1.10;;
19364;SDS011;9818;48.382;10.850;2023-12-14T00:25:04;1.33;;;0.80;;
19364;SDS011;9818;48.382;10.850;2023-12-14T00:27:33;1.37;;;0.70;;
19364;SDS011;9818;48.382;10.850;2023-12-14T00:30:02;1.73;;;0.70;;
19364;SDS011;9818;48.382;10.850;2023-12-14T00:32:34;1.93;;;0.90;;
19364;SDS011;9818;48.382;10.850;2023-12-14T00:35:03;0.70;;;0.70;;
19364;SDS011;9818;48.382;10.850;2023-12-14T00:37:32;1.47;;;1.00;;
19364;SDS011;9818;48.382;10.850;2023-12-14T00:40:01;1.63;;;0.77;;
19364;SDS011;9818;48.382;10.850;2023-12-14T00:42:30;0.80;;;0.80;;
19364;SDS011;9818;48.382;10.850;2023-12-14T00:44:58;0.83;;;0.67;;
19364;SDS011;9818;48.382;10.850;2023-12-14T00:47:27;0.60;;;0.60;;
19364;SDS011;9818;48.382;10.850;2023-12-14T00:49:58;1.33;;;0.77;;
19364;SDS011;9818;48.382;10.850;2023-12-14T00:52:27;0.97;;;0.83;;
19364;SDS011;9818;48.382;10.850;2023-12-14T00:54:56;1.10;;;0.60;;
19364;SDS011;9818;48.382;10.850;2023-12-14T00:57:25;1.47;;;0.73;;
19364;SDS011;9818;48.382;10.850;2023-12-14T00:59:54;0.63;;;0.60;;
19364;SDS011;9818;48.382;10.850;2023-12-14T01:02:23;0.83;;;0.63;;
19364;SDS011;9818;48.382;10.850;2023-12-14T01:04:51;1.03;;;0.70;;
19364;SDS011;9818;48.382;10.850;2023-12-14T01:07:23;1.37;;;0.70;;
19364;SDS011;9818;48.382;10.850;2023-12-14T01:09:51;2.10;;;1.00;;
19364;SDS011;9818;48.382;10.850;2023-12-14T01:12:20;1.00;;;0.80;;
19364;SDS011;9818;48.382;10.850;2023-12-14T01:14:49;0.77;;;0.60;;
19364;SDS011;9818;48.382;10.850;2023-12-14T01:17:18;1.67;;;0.80;;
19364;SDS011;9818;48.382;10.850;2023-12-14T01:19:46;0.83;;;0.60;;
19364;SDS011;9818;48.382;10.850;2023-12-14T01:22:15;2.07;;;0.90;;
19364;SDS011;9818;48.382;10.850;2023-12-14T01:24:47;1.60;;;0.70;;
19364;SDS011;9818;48.382;10.850;2023-12-14T01:27:15;0.50;;;0.50;;
19364;SDS011;9818;48.382;10.850;2023-12-14T01:29:44;2.10;;;0.80;;
19364;SDS011;9818;48.382;10.850;2023-12-14T01:32:13;0.77;;;0.77;;
19364;SDS011;9818;48.382;10.850;2023-12-14T01:34:42;1.27;;;0.80;;
19364;SDS011;9818;48.382;10.850;2023-12-14T01:37:11;1.30;;;0.80;;
19364;SDS011;9818;48.382;10.850;2023-12-14T01:39:40;0.90;;;0.70;;
19364;SDS011;9818;48.382;10.850;2023-12-14T01:42:11;1.17;;;0.77;;
19364;SDS011;9818;48.382;10.850;2023-12-14T01:44:40;1.00;;;0.70;;
19364;SDS011;9818;48.382;10.850;2023-12-14T01:47:09;1.60;;;0.70;;
19364;SDS011;9818;48.382;10.850;2023-12-14T01:49:37;0.57;;;0.57;;
19364;SDS011;9818;48.382;10.850;2023-12-14T01:52:06;0.90;;;0.60;;
19364;SDS011;9818;48.382;10.850;2023-12-14T01:54:35;1.10;;;0.80;;
19364;SDS011;9818;48.382;10.850;2023-12-14T01:57:04;0.50;;;0.50;;
19364;SDS011;9818;48.382;10.850;2023-12-14T01:59:36;0.97;;;0.90;;
19364;SDS011;9818;48.382;10.850;2023-12-14T02:02:04;1.50;;;0.87;;
19364;SDS011;9818;48.382;10.850;2023-12-14T02:04:33;0.60;;;0.60;;
19364;SDS011;9818;48.382;10.850;2023-12-14T02:07:02;0.90;;;0.63;;
19364;SDS011;9818;48.382;10.850;2023-12-14T02:09:31;0.50;;;0.50;;
19364;SDS011;9818;48.382;10.850;2023-12-14T02:12:00;0.60;;;0.60;;
19364;SDS011;9818;48.382;10.850;2023-12-14T02:14:29;0.50;;;0.50;;
19364;SDS011;9818;48.382;10.850;2023-12-14T02:17:00;0.70;;;0.70;;
19364;SDS011;9818;48.382;10.850;2023-12-14T02:19:29;1.40;;;0.70;;
19364;SDS011;9818;48.382;10.850;2023-12-14T02:21:58;1.07;;;0.57;;
19364;SDS011;9818;48.382;10.850;2023-12-14T02:24:29;2.30;;;0.90;;
19364;SDS011;9818;48.382;10.850;2023-12-14T02:26:58;1.10;;;0.63;;
19364;SDS011;9818;48.382;10.850;2023-12-14T02:29:27;0.50;;;0.50;;
19364;SDS011;9818;48.382;10.850;2023-12-14T02:31:56;1.10;;;0.70;;
19364;SDS011;9818;48.382;10.850;2023-12-14T02:34:25;0.73;;;0.70;;
19364;SDS011;9818;48.382;10.850;2023-12-14T02:36:54;0.70;;;0.70;;
19364;SDS011;9818;48.382;10.850;2023-12-14T02:39:22;0.70;;;0.60;;
19364;SDS011;9818;48.382;10.850;2023-12-14T02:41:54;0.73;;;0.73;;
19364;SDS011;9818;48.382;10.850;2023-12-14T02:44:23;0.67;;;0.50;;
19364;SDS011;9818;48.382;10.850;2023-12-14T02:46:51;0.60;;;0.60;;
19364;SDS011;9818;48.382;10.850;2023-12-14T02:49:20;0.70;;;0.60;;
19364;SDS011;9818;48.382;10.850;2023-12-14T02:51:49;0.60;;;0.60;;
19364;SDS011;9818;48.382;10.850;2023-12-14T02:54:18;1.30;;;0.70;;
19364;SDS011;9818;48.382;10.850;2023-12-14T02:56:46;0.50;;;0.50;;
19364;SDS011;9818;48.382;10.850;2023-12-14T02:59:18;1.33;;;0.70;;
19364;SDS011;9818;48.382;10.850;2023-12-14T03:01:47;0.60;;;0.60;;
19364;SDS011;9818;48.382;10.850;2023-12-14T03:04:15;0.63;;;0.63;;
19364;SDS011;9818;48.382;10.850;2023-12-14T03:06:44;0.70;;;0.70;;
19364;SDS011;9818;48.382;10.850;2023-12-14T03:09:13;1.50;;;0.60;;
19364;SDS011;9818;48.382;10.850;2023-12-14T03:11:44;1.20;;;0.70;;
19364;SDS011;9818;48.382;10.850;2023-12-14T03:14:13;0.60;;;0.60;;
19364;SDS011;9818;48.382;10.850;2023-12-14T03:16:44;0.60;;;0.60;;
19364;SDS011;9818;48.382;10.850;2023-12-14T03:19:14;0.80;;;0.80;;
19364;SDS011;9818;48.382;10.850;2023-12-14T03:21:43;0.60;;;0.60;;
19364;SDS011;9818;48.382;10.850;2023-12-14T03:24:12;0.60;;;0.60;;
19364;SDS011;9818;48.382;10.850;2023-12-14T03:26:40;1.03;;;0.70;;
19364;SDS011;9818;48.382;10.850;2023-12-14T03:29:09;0.50;;;0.50;;
19364;SDS011;9818;48.382;10.850;2023-12-14T03:31:38;0.60;;;0.60;;
19364;SDS011;9818;48.382;10.850;2023-12-14T03:34:09;0.50;;;0.50;;
19364;SDS011;9818;48.382;10.850;2023-12-14T03:36:38;0.50;;;0.50;;
19364;SDS011;9818;48.382;10.850;2023-12-14T03:39:07;0.60;;;0.60;;
19364;SDS011;9818;48.382;10.850;2023-12-14T03:41:36;0.60;;;0.53;;
19364;SDS011;9818;48.382;10.850;2023-12-14T03:44:04;0.53;;;0.53;;
19364;SDS011;9818;48.382;10.850;2023-12-14T03:46:33;1.13;;;0.60;;
19364;SDS011;9818;48.382;10.850;2023-12-14T03:49:02;0.73;;;0.70;;
19364;SDS011;9818;48.382;10.850;2023-12-14T03:51:34;0.60;;;0.60;;
19364;SDS011;9818;48.382;10.850;2023-12-14T03:54:03;0.50;;;0.50;;
19364;SDS011;9818;48.382;10.850;2023-12-14T03:56:31;0.90;;;0.70;;
19364;SDS011;9818;48.382;10.850;2023-12-14T03:59:00;0.50;;;0.50;;
19364;SDS011;9818;48.382;10.850;2023-12-14T04:01:29;0.60;;;0.60;;
19364;SDS011;9818;48.382;10.850;2023-12-14T04:03:58;0.63;;;0.50;;
19364;SDS011;9818;48.382;10.850;2023-12-14T04:06:27;0.63;;;0.63;;
19364;SDS011;9818;48.382;10.850;2023-12-14T04:08:58;0.60;;;0.60;;
19364;SDS011;9818;48.382;10.850;2023-12-14T04:11:27;0.50;;;0.50;;
19364;SDS011;9818;48.382;10.850;2023-12-14T04:13:56;0.67;;;0.60;;
19364;SDS011;9818;48.382;10.850;2023-12-14T04:16:25;0.57;;;0.57;;
19364;SDS011;9818;48.382;10.850;2023-12-14T04:18:53;0.53;;;0.50;;
19364;SDS011;9818;48.382;10.850;2023-12-14T04:21:22;0.50;;;0.50;;
19364;SDS011;9818;48.382;10.850;2023-12-14T04:23:51;0.80;;;0.50;;
19364;SDS011;9818;48.382;10.850;2023-12-14T04:26:23;0.67;;;0.67;;
19364;SDS011;9818;48.382;10.850;2023-12-14T04:28:52;0.50;;;0.50;;
19364;SDS011;9818;48.382;10.850;2023-12-14T04:31:21;0.70;;;0.50;;
19364;SDS011;9818;48.382;10.850;2023-12-14T04:33:49;0.70;;;0.67;;
19364;SDS011;9818;48.382;10.850;2023-12-14T04:36:18;0.90;;;0.57;;
19364;SDS011;9818;48.382;10.850;2023-12-14T04:38:47;0.50;;;0.50;;
19364;SDS011;9818;48.382;10.850;2023-12-14T04:41:16;0.60;;;0.60;;
19364;SDS011;9818;48.382;10.850;2023-12-14T04:43:47;0.60;;;0.60;;
19364;SDS011;9818;48.382;10.850;2023-12-14T04:46:16;0.50;;;0.50;;
19364;SDS011;9818;48.382;10.850;2023-12-14T04:48:45;0.50;;;0.50;;
19364;SDS011;9818;48.382;10.850;2023-12-14T04:51:14;0.73;;;0.50;;
19364;SDS011;9818;48.382;10.850;2023-12-14T04:53:42;0.60;;;0.60;;
19364;SDS011;9818;48.382;10.850;2023-12-14T04:56:11;0.63;;;0.63;;
19364;SDS011;9818;48.382;10.850;2023-12-14T04:58:41;0.60;;;0.60;;
19364;SDS011;9818;48.382;10.850;2023-12-14T05:01:13;0.50;;;0.50;;
19364;SDS011;9818;48.382;10.850;2023-12-14T05:03:42;0.50;;;0.50;;
19364;SDS011;9818;48.382;10.850;2023-12-14T05:06:11;0.50;;;0.50;;
19364;SDS011;9818;48.382;10.850;2023-12-14T05:08:40;0.50;;;0.50;;
19364;SDS011;9818;48.382;10.850;2023-12-14T05:11:09;0.60;;;0.50;;
19364;SDS011;9818;48.382;10.850;2023-12-14T05:13:38;0.50;;;0.50;;
19364;SDS011;9818;48.382;10.850;2023-12-14T05:16:12;0.80;;;0.53;;
19364;SDS011;9818;48.382;10.850;2023-12-14T05:18:44;1.00;;;0.60;;
19364;SDS011;9818;48.382;10.850;2023-12-14T05:21:16;0.60;;;0.60;;
19364;SDS011;9818;48.382;10.850;2023-12-14T05:23:45;0.60;;;0.60;;
19364;SDS011;9818;48.382;10.850;2023-12-14T05:26:14;0.60;;;0.60;;
19364;SDS011;9818;48.382;10.850;2023-12-14T05:28:43;0.50;;;0.50;;
19364;SDS011;9818;48.382;10.850;2023-12-14T05:31:11;0.77;;;0.47;;
19364;SDS011;9818;48.382;10.850;2023-12-14T05:33:43;0.50;;;0.50;;
19364;SDS011;9818;48.382;10.850;2023-12-14T05:36:12;0.50;;;0.50;;
19364;SDS011;9818;48.382;10.850;2023-12-14T05:38:41;1.60;;;0.50;;
19364;SDS011;9818;48.382;10.850;2023-12-14T05:41:10;0.40;;;0.40;;
19364;SDS011;9818;48.382;10.850;2023-12-14T05:43:40;0.50;;;0.50;;
19364;SDS011;9818;48.382;10.850;2023-12-14T05:46:09;0.50;;;0.50;;
19364;SDS011;9818;48.382;10.850;2023-12-14T05:48:50;0.47;;;0.47;;
19364;SDS011;9818;48.382;10.850;2023-12-14T05:51:26;0.50;;;0.50;;
19364;SDS011;9818;48.382;10.850;2023-12-14T05:53:55;0.50;;;0.50;;
19364;SDS011;9818;48.382;10.850;2023-12-14T05:56:25;0.80;;;0.57;;
19364;SDS011;9818;48.382;10.850;2023-12-14T05:58:54;0.60;;;0.60;;
19364;SDS011;9818;48.382;10.850;2023-12-14T06:01:24;0.60;;;0.60;;
19364;SDS011;9818;48.382;10.850;2023-12-14T06:03:56;0.50;;;0.50;;
19364;SDS011;9818;48.382;10.850;2023-12-14T06:06:24;0.47;;;0.47;;
19364;SDS011;9818;48.382;10.850;2023-12-14T06:08:53;0.60;;;0.60;;
19364;SDS011;9818;48.382;10.850;2023-12-14T06:11:22;0.40;;;0.40;;
19364;SDS011;9818;48.382;10.850;2023-12-14T06:13:51;0.50;;;0.50;;
19364;SDS011;9818;48.382;10.850;2023-12-14T06:16:19;0.50;;;0.50;;
19364;SDS011;9818;48.382;10.850;2023-12-14T06:18:48;0.50;;;0.50;;
19364;SDS011;9818;48.382;10.850;2023-12-14T06:21:19;0.57;;;0.40;;
19364;SDS011;9818;48.382;10.850;2023-12-14T06:23:51;0.50;;;0.50;;
19364;SDS011;9818;48.382;10.850;2023-12-14T06:26:19;0.40;;;0.40;;
19364;SDS011;9818;48.382;10.850;2023-12-14T06:28:48;0.57;;;0.57;;
19364;SDS011;9818;48.382;10.850;2023-12-14T06:31:17;0.50;;;0.50;;
19364;SDS011;9818;48.382;10.850;2023-12-14T06:33:47;0.50;;;0.50;;
19364;SDS011;9818;48.382;10.850;2023-12-14T06:36:16;0.47;;;0.40;;
19364;SDS011;9818;48.382;10.850;2023-12-14T06:38:48;0.70;;;0.60;;
19364;SDS011;9818;48.382;10.850;2023-12-14T06:41:20;0.50;;;0.50;;
19364;SDS011;9818;48.382;10.850;2023-12-14T06:43:49;0.50;;;0.50;;
19364;SDS011;9818;48.382;10.850;2023-12-14T06:46:18;0.50;;;0.50;;
19364;SDS011;9818;48.382;10.850;2023-12-14T06:48:48;0.50;;;0.50;;
19364;SDS011;9818;48.382;10.850;2023-12-14T06:51:18;0.60;;;0.60;;
19364;SDS011;9818;48.382;10.850;2023-12-14T06:53:50;0.53;;;0.53;;
19364;SDS011;9818;48.382;10.850;2023-12-14T06:56:19;0.50;;;0.50;;
19364;SDS011;9818;48.382;10.850;2023-12-14T06:58:47;0.77;;;0.50;;
19364;SDS011;9818;48.382;10.850;2023-12-14T07:01:16;0.50;;;0.50;;
19364;SDS011;9818;48.382;10.850;2023-12-14T07:03:45;0.50;;;0.50;;
19364;SDS011;9818;48.382;10.850;2023-12-14T07:06:14;0.70;;;0.60;;
19364;SDS011;9818;48.382;10.850;2023-12-14T07:08:44;0.50;;;0.50;;
19364;SDS011;9818;48.382;10.850;2023-12-14T07:11:15;0.60;;;0.50;;
19364;SDS011;9818;48.382;10.850;2023-12-14T07:13:45;0.50;;;0.50;;
19364;SDS011;9818;48.382;10.850;2023-12-14T07:16:14;0.40;;;0.40;;
19364;SDS011;9818;48.382;10.850;2023-12-14T07:18:43;0.40;;;0.40;;
19364;SDS011;9818;48.382;10.850;2023-12-14T07:21:12;0.50;;;0.40;;
19364;SDS011;9818;48.382;10.850;2023-12-14T07:23:41;0.50;;;0.50;;
19364;SDS011;9818;48.382;10.850;2023-12-14T07:26:10;0.40;;;0.40;;
19364;SDS011;9818;48.382;10.850;2023-12-14T07:28:41;0.50;;;0.50;;
19364;SDS011;9818;48.382;10.850;2023-12-14T07:31:10;0.50;;;0.50;;
19364;SDS011;9818;48.382;10.850;2023-12-14T07:33:38;0.50;;;0.50;;
19364;SDS011;9818;48.382;10.850;2023-12-14T07:36:08;0.40;;;0.40;;
19364;SDS011;9818;48.382;10.850;2023-12-14T07:38:37;0.50;;;0.50;;
19364;SDS011;9818;48.382;10.850;2023-12-14T07:41:06;0.53;;;0.50;;
19364;SDS011;9818;48.382;10.850;2023-12-14T07:43:35;0.50;;;0.50;;
19364;SDS011;9818;48.382;10.850;2023-12-14T07:46:06;0.57;;;0.50;;
19364;SDS011;9818;48.382;10.850;2023-12-14T07:48:35;0.67;;;0.50;;
19364;SDS011;9818;48.382;10.850;2023-12-14T07:51:04;0.60;;;0.50;;
19364;SDS011;9818;48.382;10.850;2023-12-14T07:53:33;0.63;;;0.63;;
19364;SDS011;9818;48.382;10.850;2023-12-14T07:56:02;0.43;;;0.43;;
19364;SDS011;9818;48.382;10.850;2023-12-14T07:58:31;0.50;;;0.50;;
19364;SDS011;9818;48.382;10.850;2023-12-14T08:01:00;0.50;;;0.50;;
19364;SDS011;9818;48.382;10.850;2023-12-14T08:03:31;0.40;;;0.40;;
19364;SDS011;9818;48.382;10.850;2023-12-14T08:06:00;0.50;;;0.50;;
19364;SDS011;9818;48.382;10.850;2023-12-14T08:08:29;0.50;;;0.50;;
19364;SDS011;9818;48.382;10.850;2023-12-14T08:10:58;0.50;;;0.50;;
19364;SDS011;9818;48.382;10.850;2023-12-14T08:13:28;0.53;;;0.53;;
19364;SDS011;9818;48.382;10.850;2023-12-14T08:15:57;0.40;;;0.40;;
19364;SDS011;9818;48.382;10.850;2023-12-14T08:18:26;0.57;;;0.50;;
19364;SDS011;9818;48.382;10.850;2023-12-14T08:20:57;0.50;;;0.50;;
19364;SDS011;9818;48.382;10.850;2023-12-14T08:23:26;0.40;;;0.40;;
19364;SDS011;9818;48.382;10.850;2023-12-14T08:25:55;0.40;;;0.40;;
19364;SDS011;9818;48.382;10.850;2023-12-14T08:28:24;0.40;;;0.40;;
19364;SDS011;9818;48.382;10.850;2023-12-14T08:30:53;0.43;;;0.43;;
19364;SDS011;9818;48.382;10.850;2023-12-14T08:33:23;0.40;;;0.40;;
19364;SDS011;9818;48.382;10.850;2023-12-14T08:35:51;0.83;;;0.57;;
19364;SDS011;9818;48.382;10.850;2023-12-14T08:38:23;0.40;;;0.40;;
19364;SDS011;9818;48.382;10.850;2023-12-14T08:40:52;0.40;;;0.40;;
19364;SDS011;9818;48.382;10.850;2023-12-14T08:43:21;0.50;;;0.50;;
19364;SDS011;9818;48.382;10.850;2023-12-14T08:45:50;0.60;;;0.60;;
19364;SDS011;9818;48.382;10.850;2023-12-14T08:48:19;0.50;;;0.50;;
19364;SDS011;9818;48.382;10.850;2023-12-14T08:50:47;0.40;;;0.40;;
19364;SDS011;9818;48.382;10.850;2023-12-14T08:53:16;0.60;;;0.60;;
19364;SDS011;9818;48.382;10.850;2023-12-14T08:55:48;0.60;;;0.60;;
19364;SDS011;9818;48.382;10.850;2023-12-14T08:58:16;0.67;;;0.50;;
19364;SDS011;9818;48.382;10.850;2023-12-14T09:00:45;0.50;;;0.50;;
19364;SDS011;9818;48.382;10.850;2023-12-14T09:03:17;0.50;;;0.50;;
19364;SDS011;9818;48.382;10.850;2023-12-14T09:05:46;0.50;;;0.47;;
19364;SDS011;9818;48.382;10.850;2023-12-14T09:08:15;0.50;;;0.50;;
19364;SDS011;9818;48.382;10.850;2023-12-14T09:10:44;0.50;;;0.50;;
19364;SDS011;9818;48.382;10.850;2023-12-14T09:13:15;0.77;;;0.50;;
19364;SDS011;9818;48.382;10.850;2023-12-14T09:15:44;1.57;;;0.50;;
19364;SDS011;9818;48.382;10.850;2023-12-14T09:18:17;0.60;;;0.60;;
19364;SDS011;9818;48.382;10.850;2023-12-14T09:20:47;0.50;;;0.50;;
19364;SDS011;9818;48.382;10.850;2023-12-14T09:23:17;0.60;;;0.60;;
19364;SDS011;9818;48.382;10.850;2023-12-14T09:25:46;0.93;;;0.60;;
19364;SDS011;9818;48.382;10.850;2023-12-14T09:28:18;0.60;;;0.60;;
19364;SDS011;9818;48.382;10.850;2023-12-14T09:30:46;0.63;;;0.43;;
19364;SDS011;9818;48.382;10.850;2023-12-14T09:33:15;0.50;;;0.50;;
19364;SDS011;9818;48.382;10.850;2023-12-14T09:35:44;0.50;;;0.50;;
19364;SDS011;9818;48.382;10.850;2023-12-14T09:38:13;0.60;;;0.60;;
19364;SDS011;9818;48.382;10.850;2023-12-14T09:40:43;0.50;;;0.50;;
19364;SDS011;9818;48.382;10.850;2023-12-14T09:43:12;0.80;;;0.60;;
19364;SDS011;9818;48.382;10.850;2023-12-14T09:45:44;0.43;;;0.43;;
19364;SDS011;9818;48.382;10.850;2023-12-14T09:48:15;1.57;;;0.80;;
19364;SDS011;9818;48.382;10.850;2023-12-14T09:50:44;2.43;;;0.70;;
19364;SDS011;9818;48.382;10.850;2023-12-14T09:53:14;1.33;;;0.50;;
19364;SDS011;9818;48.382;10.850;2023-12-14T09:55:43;0.60;;;0.60;;
19364;SDS011;9818;48.382;10.850;2023-12-14T09:58:12;0.70;;;0.70;;
19364;SDS011;9818;48.382;10.850;2023-12-14T10:00:41;1.50;;;0.60;;
19364;SDS011;9818;48.382;10.850;2023-12-14T10:03:20;1.63;;;0.80;;
19364;SDS011;9818;48.382;10.850;2023-12-14T10:05:51;1.10;;;0.57;;
19364;SDS011;9818;48.382;10.850;2023-12-14T10:08:21;0.77;;;0.40;;
19364;SDS011;9818;48.382;10.850;2023-12-14T10:10:50;0.43;;;0.43;;
19364;SDS011;9818;48.382;10.850;2023-12-14T10:13:21;0.47;;;0.47;;
19364;SDS011;9818;48.382;10.850;2023-12-14T10:16:06;0.40;;;0.40;;
19364;SDS011;9818;48.382;10.850;2023-12-14T10:18:35;1.10;;;0.70;;
19364;SDS011;9818;48.382;10.850;2023-12-14T10:21:05;1.07;;;0.60;;
19364;SDS011;9818;48.382;10.850;2023-12-14T10:23:35;0.43;;;0.43;;
19364;SDS011;9818;48.382;10.850;2023-12-14T10:26:04;0.60;;;0.50;;
19364;SDS011;9818;48.382;10.850;2023-12-14T10:28:33;1.60;;;0.50;;
19364;SDS011;9818;48.382;10.850;2023-12-14T10:31:02;1.07;;;0.60;;
19364;SDS011;9818;48.382;10.850;2023-12-14T10:33:33;0.53;;;0.53;;
19364;SDS011;9818;48.382;10.850;2023-12-14T10:36:03;0.60;;;0.60;;
19364;SDS011;9818;48.382;10.850;2023-12-14T10:38:34;1.00;;;0.60;;
19364;SDS011;9818;48.382;10.850;2023-12-14T10:41:06;0.50;;;0.50;;
19364;SDS011;9818;48.382;10.850;2023-12-14T10:43:36;0.67;;;0.67;;
19364;SDS011;9818;48.382;10.850;2023-12-14T10:46:05;0.80;;;0.70;;
19364;SDS011;9818;48.382;10.850;2023-12-14T10:48:37;0.60;;;0.50;;
19364;SDS011;9818;48.382;10.850;2023-12-14T10:51:09;0.67;;;0.60;;
19364;SDS011;9818;48.382;10.850;2023-12-14T10:53:39;0.50;;;0.50;;
19364;SDS011;9818;48.382;10.850;2023-12-14T10:56:10;0.63;;;0.60;;
19364;SDS011;9818;48.382;10.850;2023-12-14T10:58:45;0.50;;;0.50;;
19364;SDS011;9818;48.382;10.850;2023-12-14T11:01:15;2.17;;;0.60;;
19364;SDS011;9818;48.382;10.850;2023-12-14T11:03:49;0.53;;;0.53;;
19364;SDS011;9818;48.382;10.850;2023-12-14T11:06:26;0.90;;;0.60;;
19364;SDS011;9818;48.382;10.850;2023-12-14T11:08:59;0.53;;;0.53;;
19364;SDS011;9818;48.382;10.850;2023-12-14T11:11:40;1.00;;;0.60;;
19364;SDS011;9818;48.382;10.850;2023-12-14T11:14:11;2.27;;;0.73;;
19364;SDS011;9818;48.382;10.850;2023-12-14T11:16:43;0.60;;;0.60;;
19364;SDS011;9818;48.382;10.850;2023-12-14T11:19:28;0.50;;;0.50;;
19364;SDS011;9818;48.382;10.850;2023-12-14T11:22:13;2.10;;;1.47;;
19364;SDS011;9818;48.382;10.850;2023-12-14T11:24:52;8.80;;;2.13;;
19364;SDS011;9818;48.382;10.850;2023-12-14T11:27:26;1.33;;;1.00;;
19364;SDS011;9818;48.382;10.850;2023-12-14T11:29:56;1.40;;;1.00;;
19364;SDS011;9818;48.382;10.850;2023-12-14T11:32:26;0.83;;;0.83;;
19364;SDS011;9818;48.382;10.850;2023-12-14T11:34:58;0.80;;;0.80;;
19364;SDS011;9818;48.382;10.850;2023-12-14T11:37:27;0.97;;;0.90;;
19364;SDS011;9818;48.382;10.850;2023-12-14T11:39:58;0.77;;;0.70;;
19364;SDS011;9818;48.382;10.850;2023-12-14T11:42:30;1.00;;;0.90;;
19364;SDS011;9818;48.382;10.850;2023-12-14T11:44:59;0.93;;;0.90;;
19364;SDS011;9818;48.382;10.850;2023-12-14T11:47:28;2.40;;;1.00;;
19364;SDS011;9818;48.382;10.850;2023-12-14T11:49:54;2.70;;;0.80;;
19364;SDS011;9818;48.382;10.850;2023-12-14T11:52:27;2.87;;;0.80;;
19364;SDS011;9818;48.382;10.850;2023-12-14T11:54:55;3.13;;;0.87;;
19364;SDS011;9818;48.382;10.850;2023-12-14T11:57:27;1.87;;;0.93;;
19364;SDS011;9818;48.382;10.850;2023-12-14T11:59:57;0.97;;;0.80;;
19364;SDS011;9818;48.382;10.850;2023-12-14T12:02:28;2.83;;;0.90;;
19364;SDS011;9818;48.382;10.850;2023-12-14T12:04:59;2.27;;;1.00;;
19364;SDS011;9818;48.382;10.850;2023-12-14T12:07:28;0.93;;;0.77;;
19364;SDS011;9818;48.382;10.850;2023-12-14T12:09:58;1.03;;;0.90;;
19364;SDS011;9818;48.382;10.850;2023-12-14T12:12:27;3.07;;;1.10;;
19364;SDS011;9818;48.382;10.850;2023-12-14T12:14:56;3.50;;;0.70;;
19364;SDS011;9818;48.382;10.850;2023-12-14T12:17:25;2.67;;;0.60;;
19364;SDS011;9818;48.382;10.850;2023-12-14T12:19:54;1.90;;;0.60;;
19364;SDS011;9818;48.382;10.850;2023-12-14T12:22:25;2.13;;;0.80;;
19364;SDS011;9818;48.382;10.850;2023-12-14T12:24:54;2.27;;;0.90;;
19364;SDS011;9818;48.382;10.850;2023-12-14T12:27:23;5.73;;;1.10;;
19364;SDS011;9818;48.382;10.850;2023-12-14T12:29:52;6.33;;;1.10;;
19364;SDS011;9818;48.382;10.850;2023-12-14T12:32:21;2.57;;;0.87;;
19364;SDS011;9818;48.382;10.850;2023-12-14T12:34:49;3.17;;;0.90;;
19364;SDS011;9818;48.382;10.850;2023-12-14T12:37:18;4.00;;;1.00;;
19364;SDS011;9818;48.382;10.850;2023-12-14T12:39:50;1.73;;;0.97;;
19364;SDS011;9818;48.382;10.850;2023-12-14T12:42:19;1.77;;;0.93;;
19364;SDS011;9818;48.382;10.850;2023-12-14T12:44:48;2.53;;;0.90;;
19364;SDS011;9818;48.382;10.850;2023-12-14T12:47:17;3.40;;;1.00;;
19364;SDS011;9818;48.382;10.850;2023-12-14T12:49:46;3.43;;;0.90;;
19364;SDS011;9818;48.382;10.850;2023-12-14T12:52:15;2.67;;;1.00;;
19364;SDS011;9818;48.382;10.850;2023-12-14T12:54:43;3.57;;;1.07;;
19364;SDS011;9818;48.382;10.850;2023-12-14T12:57:15;2.97;;;0.80;;
19364;SDS011;9818;48.382;10.850;2023-12-14T12:59:43;1.73;;;0.80;;
19364;SDS011;9818;48.382;10.850;2023-12-14T13:02:12;1.07;;;0.93;;
19364;SDS011;9818;48.382;10.850;2023-12-14T13:04:41;1.10;;;1.00;;
19364;SDS011;9818;48.382;10.850;2023-12-14T13:07:10;3.17;;;0.80;;
19364;SDS011;9818;48.382;10.850;2023-12-14T13:09:39;3.57;;;0.90;;
19364;SDS011;9818;48.382;10.850;2023-12-14T13:12:08;1.43;;;0.90;;
19364;SDS011;9818;48.382;10.850;2023-12-14T13:14:39;1.30;;;0.90;;
19364;SDS011;9818;48.382;10.850;2023-12-14T13:17:08;1.67;;;1.07;;
19364;SDS011;9818;48.382;10.850;2023-12-14T13:19:37;14.47;;;2.00;;
19364;SDS011;9818;48.382;10.850;2023-12-14T13:22:06;8.87;;;1.57;;
19364;SDS011;9818;48.382;10.850;2023-12-14T13:24:36;11.30;;;1.47;;
19364;SDS011;9818;48.382;10.850;2023-12-14T13:27:05;1.83;;;1.20;;
19364;SDS011;9818;48.382;10.850;2023-12-14T13:29:33;3.70;;;1.10;;
19364;SDS011;9818;48.382;10.850;2023-12-14T13:32:05;4.10;;;1.10;;
19364;SDS011;9818;48.382;10.850;2023-12-14T13:34:34;4.37;;;1.10;;
19364;SDS011;9818;48.382;10.850;2023-12-14T13:37:03;4.37;;;1.20;;
19364;SDS011;9818;48.382;10.850;2023-12-14T13:39:33;2.77;;;0.83;;
19364;SDS011;9818;48.382;10.850;2023-12-14T13:42:03;2.87;;;1.13;;
19364;SDS011;9818;48.382;10.850;2023-12-14T13:44:33;3.30;;;1.10;;
19364;SDS011;9818;48.382;10.850;2023-12-14T13:47:05;1.20;;;0.93;;
19364;SDS011;9818;48.382;10.850;2023-12-14T13:49:34;4.80;;;1.20;;
19364;SDS011;9818;48.382;10.850;2023-12-14T13:52:03;4.67;;;1.27;;
19364;SDS011;9818;48.382;10.850;2023-12-14T13:54:32;7.97;;;2.80;;
19364;SDS011;9818;48.382;10.850;2023-12-14T13:57:01;2.43;;;2.10;;
19364;SDS011;9818;48.382;10.850;2023-12-14T13:59:30;6.63;;;2.33;;
19364;SDS011;9818;48.382;10.850;2023-12-14T14:01:59;6.13;;;1.30;;
19364;SDS011;9818;48.382;10.850;2023-12-14T14:04:31;1.83;;;1.27;;
19364;SDS011;9818;48.382;10.850;2023-12-14T14:06:59;7.43;;;3.53;;
19364;SDS011;9818;48.382;10.850;2023-12-14T14:09:28;5.27;;;2.40;;
19364;SDS011;9818;48.382;10.850;2023-12-14T14:11:58;5.40;;;1.70;;
19364;SDS011;9818;48.382;10.850;2023-12-14T14:14:27;5.37;;;2.03;;
19364;SDS011;9818;48.382;10.850;2023-12-14T14:16:55;5.10;;;1.60;;
19364;SDS011;9818;48.382;10.850;2023-12-14T14:19:24;3.27;;;1.70;;
19364;SDS011;9818;48.382;10.850;2023-12-14T14:21:55;4.23;;;1.93;;
19364;SDS011;9818;48.382;10.850;2023-12-14T14:24:24;6.43;;;2.30;;
19364;SDS011;9818;48.382;10.850;2023-12-14T14:26:53;2.43;;;1.90;;
19364;SDS011;9818;48.382;10.850;2023-12-14T14:29:22;5.13;;;2.20;;
19364;SDS011;9818;48.382;10.850;2023-12-14T14:31:51;4.47;;;2.00;;
19364;SDS011;9818;48.382;10.850;2023-12-14T14:34:19;5.07;;;2.20;;
19364;SDS011;9818;48.382;10.850;2023-12-14T14:36:49;3.20;;;1.90;;
19364;SDS011;9818;48.382;10.850;2023-12-14T14:39:20;4.97;;;1.90;;
19364;SDS011;9818;48.382;10.850;2023-12-14T14:41:49;6.23;;;1.80;;
19364;SDS011;9818;48.382;10.850;2023-12-14T14:44:18;3.23;;;1.60;;
19364;SDS011;9818;48.382;10.850;2023-12-14T14:46:46;2.93;;;1.60;;
19364;SDS011;9818;48.382;10.850;2023-12-14T14:49:16;4.63;;;2.00;;
19364;SDS011;9818;48.382;10.850;2023-12-14T14:51:45;6.37;;;2.33;;
19364;SDS011;9818;48.382;10.850;2023-12-14T14:54:13;3.80;;;1.80;;
19364;SDS011;9818;48.382;10.850;2023-12-14T14:56:45;4.13;;;1.93;;
19364;SDS011;9818;48.382;10.850;2023-12-14T14:59:14;6.70;;;2.17;;
19364;SDS011;9818;48.382;10.850;2023-12-14T15:01:43;6.07;;;1.93;;